Vanguard, Canada
Current Conditions -  °F | °C
As of 11:48 AM on Monday 22 Dec 2014 (Local Time) from CYYN Reporting Station
Light Snow Light Snow  
Wind Chill:   Ceiling: 3800
Heat Index: 21°   Visibility: 3mi
Dew Point: 19°   Wind: 18mph
Humidity: 93%   Direction: 330°NNW
Pressure: 29.71"   Gusts: 24mph
Location:  49.9°N, 107.3°W
Report Text: CYYN 221748Z AUTO 33016G21KT 3SM -SN FEW006 OVC038 M06/M07 A2971 RMK SLP103
Loading
Personal Weather Stations






























Interactive Weather Map New forecast layout! Learn more

10-Day Weather Forecast

Advertisements
Track Severe Weather on mobile